createdAt,value
2022-08-18T00:02:22.913Z,12.80
2022-08-18T00:04:57.121Z,12.70
2022-08-18T00:07:31.064Z,12.80
2022-08-18T00:10:01.205Z,12.80
2022-08-18T00:12:37.219Z,12.80
2022-08-18T00:15:05.710Z,12.80
2022-08-18T00:17:33.944Z,12.80
2022-08-18T00:20:01.250Z,12.70
2022-08-18T00:22:28.280Z,12.80
2022-08-18T00:24:56.725Z,12.80
2022-08-18T00:27:28.687Z,12.80
2022-08-18T00:29:58.503Z,12.70
2022-08-18T00:32:33.811Z,12.60
2022-08-18T00:35:21.035Z,12.70
2022-08-18T00:37:49.321Z,12.70
2022-08-18T00:40:24.460Z,12.70
2022-08-18T00:42:55.013Z,12.70
2022-08-18T00:45:36.640Z,12.70
2022-08-18T00:48:06.069Z,12.70
2022-08-18T00:50:40.193Z,12.70
2022-08-18T00:53:19.881Z,12.70
2022-08-18T00:55:53.650Z,12.70
2022-08-18T00:58:28.243Z,12.80
2022-08-18T01:00:55.698Z,12.70
2022-08-18T01:03:25.416Z,12.70
2022-08-18T01:06:27.097Z,12.70
2022-08-18T01:08:55.994Z,12.70
2022-08-18T01:11:23.127Z,12.70
2022-08-18T01:13:50.798Z,12.70
2022-08-18T01:16:37.385Z,12.70
2022-08-18T01:19:23.051Z,12.70
2022-08-18T01:21:57.520Z,12.70
2022-08-18T01:24:48.113Z,12.60
2022-08-18T01:27:18.366Z,12.60
2022-08-18T01:29:47.307Z,12.50
2022-08-18T01:32:22.979Z,12.50
2022-08-18T01:34:52.065Z,12.50
2022-08-18T01:37:22.466Z,12.50
2022-08-18T01:41:22.761Z,12.50
2022-08-18T01:42:38.629Z,12.50
2022-08-18T01:45:08.083Z,12.50
2022-08-18T01:47:47.496Z,12.50
2022-08-18T01:50:15.244Z,12.60
2022-08-18T01:52:42.323Z,12.50
2022-08-18T01:55:09.721Z,12.50
2022-08-18T01:57:43.112Z,12.50
2022-08-18T02:00:12.597Z,12.50
2022-08-18T02:02:40.463Z,12.60
2022-08-18T02:05:13.528Z,12.50
2022-08-18T02:07:40.519Z,12.50
2022-08-18T02:10:16.349Z,12.50
2022-08-18T02:12:44.002Z,12.50
2022-08-18T02:15:11.935Z,12.40
2022-08-18T02:17:40.446Z,12.40
2022-08-18T02:20:09.490Z,12.40
2022-08-18T02:22:37.886Z,12.40
2022-08-18T02:25:06.799Z,12.40
2022-08-18T02:27:34.166Z,12.40
2022-08-18T02:30:03.250Z,12.50
2022-08-18T02:32:31.746Z,12.50
2022-08-18T02:34:58.844Z,12.50
2022-08-18T02:37:25.830Z,12.50
2022-08-18T02:39:52.812Z,12.50
2022-08-18T02:42:19.684Z,12.40
2022-08-18T02:44:46.591Z,12.40
2022-08-18T02:47:13.489Z,12.40
2022-08-18T02:49:40.464Z,12.40
2022-08-18T02:52:07.438Z,12.40
2022-08-18T02:54:35.270Z,12.40
2022-08-18T02:57:08.229Z,12.40
2022-08-18T02:59:35.231Z,12.40
2022-08-18T03:02:02.147Z,12.40
2022-08-18T03:04:30.787Z,12.40
2022-08-18T03:07:03.260Z,12.40
2022-08-18T03:09:31.659Z,12.40
2022-08-18T03:11:58.896Z,12.50
2022-08-18T03:14:26.169Z,12.60
2022-08-18T03:16:54.690Z,12.60
2022-08-18T03:19:24.011Z,12.60
2022-08-18T03:21:51.218Z,12.60
2022-08-18T03:24:22.792Z,12.50
2022-08-18T03:26:51.737Z,12.50
2022-08-18T03:29:18.900Z,12.50
2022-08-18T03:31:48.794Z,12.50
2022-08-18T03:34:19.850Z,12.50
2022-08-18T03:36:48.069Z,12.50
2022-08-18T03:39:15.053Z,12.50
2022-08-18T03:41:58.616Z,12.50
2022-08-18T03:44:33.190Z,12.60
2022-08-18T03:47:03.190Z,12.60
2022-08-18T03:49:31.183Z,12.60
2022-08-18T03:52:00.860Z,12.60
2022-08-18T03:54:29.449Z,12.60
2022-08-18T03:56:56.462Z,12.70
2022-08-18T03:59:25.534Z,12.70
2022-08-18T04:01:54.232Z,12.80
2022-08-18T04:04:23.933Z,12.80
2022-08-18T04:07:05.022Z,12.80
2022-08-18T04:09:33.541Z,12.80
2022-08-18T04:12:13.415Z,12.80
2022-08-18T04:14:46.657Z,12.90
2022-08-18T04:17:13.908Z,13.00
2022-08-18T04:19:40.951Z,13.10
2022-08-18T04:22:07.840Z,13.20
2022-08-18T04:24:34.907Z,13.20
2022-08-18T04:27:05.031Z,13.20
2022-08-18T04:29:32.630Z,13.30
2022-08-18T04:32:04.779Z,13.30
2022-08-18T04:34:33.399Z,13.40
2022-08-18T04:37:00.470Z,13.40
2022-08-18T04:39:27.433Z,13.40
2022-08-18T04:41:54.921Z,13.40
2022-08-18T04:44:22.243Z,13.50
2022-08-18T04:46:52.283Z,13.40
2022-08-18T04:49:21.501Z,13.40
2022-08-18T04:52:26.584Z,13.50
2022-08-18T04:54:56.478Z,13.50
2022-08-18T04:57:24.146Z,13.50
2022-08-18T04:59:52.461Z,13.60
2022-08-18T05:02:20.916Z,13.60
2022-08-18T05:04:48.405Z,13.60
2022-08-18T05:07:18.832Z,13.60
2022-08-18T05:09:46.317Z,13.60
2022-08-18T05:12:15.647Z,13.60
2022-08-18T05:14:44.762Z,13.60
2022-08-18T05:17:12.593Z,13.70
2022-08-18T05:19:42.125Z,13.60
2022-08-18T05:22:11.489Z,13.70
2022-08-18T05:24:41.212Z,13.70
2022-08-18T05:27:08.246Z,13.70
2022-08-18T05:29:41.354Z,13.80
2022-08-18T05:32:09.465Z,13.80
2022-08-18T05:34:36.546Z,13.80
2022-08-18T05:37:03.463Z,13.80
2022-08-18T05:40:04.321Z,13.80
2022-08-18T05:42:37.957Z,13.80
2022-08-18T05:45:11.119Z,13.80
2022-08-18T05:47:38.023Z,13.80
2022-08-18T05:50:19.162Z,13.80
2022-08-18T05:52:58.147Z,13.80
2022-08-18T05:55:53.977Z,13.90
2022-08-18T05:58:43.193Z,13.90
2022-08-18T06:01:20.471Z,14.00
2022-08-18T06:03:54.080Z,14.00
2022-08-18T06:06:26.374Z,14.00
2022-08-18T06:09:28.704Z,14.00
2022-08-18T06:12:08.981Z,14.10
2022-08-18T06:14:38.228Z,14.10
2022-08-18T06:17:18.911Z,14.10
2022-08-18T06:20:06.072Z,14.10
2022-08-18T06:22:56.548Z,14.10
2022-08-18T06:25:27.604Z,14.10
2022-08-18T06:28:13.535Z,14.10
2022-08-18T06:30:40.420Z,14.20
2022-08-18T06:33:25.981Z,14.20
2022-08-18T06:36:02.780Z,14.20
2022-08-18T06:38:46.185Z,14.20
2022-08-18T06:41:43.325Z,14.30
2022-08-18T06:44:10.550Z,14.30
2022-08-18T06:46:56.256Z,14.30
2022-08-18T06:49:42.450Z,14.30
2022-08-18T06:52:33.685Z,14.40
2022-08-18T06:55:15.999Z,14.40
2022-08-18T06:58:01.337Z,14.40
2022-08-18T07:00:32.537Z,14.50
2022-08-18T07:03:06.883Z,14.40
2022-08-18T07:05:36.508Z,14.50
2022-08-18T07:08:35.422Z,14.40
2022-08-18T07:11:20.382Z,14.40
2022-08-18T07:14:09.428Z,14.40
2022-08-18T07:16:57.850Z,14.50
2022-08-18T07:19:29.747Z,14.50
2022-08-18T07:22:17.067Z,14.50
2022-08-18T07:24:52.961Z,14.50
2022-08-18T07:27:41.913Z,14.50
2022-08-18T07:30:25.011Z,14.50
2022-08-18T07:33:07.518Z,14.50
2022-08-18T07:35:39.491Z,14.60
2022-08-18T07:38:40.850Z,14.60
2022-08-18T07:41:26.209Z,14.60
2022-08-18T07:44:23.876Z,14.60
2022-08-18T07:47:04.777Z,14.60
2022-08-18T07:49:36.746Z,14.60
2022-08-18T07:52:43.791Z,14.60
2022-08-18T07:55:10.358Z,14.60
2022-08-18T07:58:06.096Z,14.50
2022-08-18T08:00:57.999Z,14.50
2022-08-18T08:03:50.399Z,14.60
2022-08-18T08:06:20.698Z,14.60
2022-08-18T08:08:59.164Z,14.70
2022-08-18T08:11:52.393Z,14.70
2022-08-18T08:14:31.454Z,14.70
2022-08-18T08:17:23.642Z,14.60
2022-08-18T08:20:24.055Z,14.70
2022-08-18T08:23:05.252Z,14.80
2022-08-18T08:25:49.137Z,14.80
2022-08-18T08:28:24.976Z,14.70
2022-08-18T08:31:49.908Z,14.80
2022-08-18T08:34:40.070Z,14.80
2022-08-18T08:37:14.942Z,14.80
2022-08-18T08:39:50.695Z,14.80
2022-08-18T08:42:30.535Z,14.90
2022-08-18T08:45:05.729Z,14.90
2022-08-18T08:47:58.497Z,15.00
2022-08-18T08:50:36.793Z,15.00
2022-08-18T08:53:14.725Z,15.00
2022-08-18T08:55:49.574Z,15.00
2022-08-18T08:58:31.415Z,15.00
2022-08-18T09:00:59.150Z,15.10
2022-08-18T09:03:41.571Z,15.10
2022-08-18T09:06:30.329Z,15.10
2022-08-18T09:09:11.326Z,15.10
2022-08-18T09:12:18.774Z,15.10
2022-08-18T09:15:04.086Z,15.10
2022-08-18T09:18:01.825Z,15.10
2022-08-18T09:20:43.525Z,15.10
2022-08-18T09:23:21.877Z,15.20
2022-08-18T09:25:54.601Z,15.20
2022-08-18T09:28:30.842Z,15.30
2022-08-18T09:31:08.619Z,15.30
2022-08-18T09:33:45.385Z,15.30
2022-08-18T09:36:36.893Z,15.20
2022-08-18T09:39:25.233Z,15.20
2022-08-18T09:41:58.625Z,15.20
2022-08-18T09:44:47.747Z,15.30
2022-08-18T09:47:22.043Z,15.20
2022-08-18T09:49:51.059Z,15.20
2022-08-18T09:52:24.321Z,15.20
2022-08-18T09:54:59.836Z,15.20
2022-08-18T09:57:36.855Z,15.30
2022-08-18T10:00:12.565Z,15.30
2022-08-18T10:02:40.424Z,15.30
2022-08-18T10:05:17.107Z,15.40
2022-08-18T10:07:48.857Z,15.40
2022-08-18T10:10:58.959Z,15.50
2022-08-18T10:13:45.141Z,15.60
2022-08-18T10:16:28.196Z,15.60
2022-08-18T10:19:18.570Z,15.70
2022-08-18T10:21:58.573Z,15.70
2022-08-18T10:25:22.878Z,15.80
2022-08-18T10:27:54.713Z,15.90
2022-08-18T10:30:34.547Z,16.00
2022-08-18T10:33:17.581Z,16.00
2022-08-18T10:36:03.084Z,16.10
2022-08-18T10:38:46.095Z,16.30
2022-08-18T10:41:33.454Z,16.30
2022-08-18T10:44:20.949Z,16.40
2022-08-18T10:46:51.611Z,16.60
2022-08-18T10:49:26.128Z,16.70
2022-08-18T10:52:16.400Z,16.80
2022-08-18T10:55:06.332Z,16.90
2022-08-18T10:58:15.574Z,16.90
2022-08-18T11:01:00.957Z,16.90
2022-08-18T11:06:24.920Z,16.90
2022-08-18T11:08:57.478Z,17.00
2022-08-18T11:14:35.804Z,17.00
2022-08-18T11:17:15.960Z,16.80
2022-08-18T11:19:46.215Z,16.80
2022-08-18T11:22:31.614Z,16.90
2022-08-18T11:25:01.112Z,17.00
2022-08-18T11:27:35.775Z,17.00
2022-08-18T11:30:06.090Z,17.20
2022-08-18T11:32:36.692Z,17.20
2022-08-18T11:35:12.950Z,17.30
2022-08-18T11:37:48.806Z,17.40
2022-08-18T11:40:51.656Z,17.40
2022-08-18T11:43:09.174Z,17.50
2022-08-18T11:45:54.260Z,17.50
2022-08-18T11:51:29.415Z,17.70
2022-08-18T11:54:01.162Z,17.50
2022-08-18T11:56:32.379Z,17.30
2022-08-18T11:59:53.117Z,17.20
2022-08-18T12:02:21.515Z,17.10
2022-08-18T12:04:57.856Z,16.80
2022-08-18T12:07:57.315Z,16.80
2022-08-18T12:10:29.050Z,16.80
2022-08-18T12:15:47.684Z,16.70
2022-08-18T12:18:25.893Z,16.60
2022-08-18T12:20:55.383Z,16.50
2022-08-18T12:23:22.290Z,16.60
2022-08-18T12:25:51.774Z,16.60
2022-08-18T12:28:22.760Z,16.60
2022-08-18T12:30:57.156Z,16.70
2022-08-18T12:33:25.616Z,16.70
2022-08-18T12:36:04.167Z,16.60
2022-08-18T12:38:32.882Z,16.50
2022-08-18T12:41:05.100Z,16.40
2022-08-18T12:43:32.616Z,16.40
2022-08-18T12:46:01.249Z,16.30
2022-08-18T12:48:30.119Z,16.30
2022-08-18T12:50:59.665Z,16.20
2022-08-18T12:56:30.300Z,16.30
2022-08-18T12:59:04.007Z,16.20
2022-08-18T13:01:32.540Z,16.20
2022-08-18T13:07:00.443Z,16.30
2022-08-18T13:09:35.345Z,16.40
2022-08-18T13:12:20.239Z,16.40
2022-08-18T13:14:48.127Z,16.50
2022-08-18T13:17:30.239Z,16.50
2022-08-18T13:20:14.288Z,16.70
2022-08-18T13:22:42.047Z,16.70
2022-08-18T13:25:12.294Z,16.80
2022-08-18T13:27:44.983Z,16.80
2022-08-18T13:30:30.131Z,16.80
2022-08-18T13:33:02.338Z,16.80
2022-08-18T13:35:37.851Z,16.80
2022-08-18T13:38:21.750Z,16.70
2022-08-18T13:40:54.769Z,16.70
2022-08-18T13:43:27.343Z,16.80
2022-08-18T13:45:56.137Z,16.80
2022-08-18T13:48:26.890Z,16.90
2022-08-18T13:50:55.773Z,17.00
2022-08-18T13:53:24.541Z,17.10
2022-08-18T13:55:52.392Z,17.10
2022-08-18T13:58:21.107Z,17.00
2022-08-18T14:01:01.895Z,16.90
2022-08-18T14:03:47.388Z,16.90
2022-08-18T14:06:15.846Z,16.80
2022-08-18T14:08:49.769Z,16.70
2022-08-18T14:11:17.529Z,16.80
2022-08-18T14:13:45.121Z,16.90
2022-08-18T14:16:18.926Z,16.90
2022-08-18T14:19:09.590Z,17.00
2022-08-18T14:22:01.890Z,17.10
2022-08-18T14:24:49.427Z,17.20
2022-08-18T14:27:17.923Z,17.30
2022-08-18T14:29:48.011Z,17.30
2022-08-18T14:32:28.432Z,17.50
2022-08-18T14:35:32.880Z,17.70
2022-08-18T14:37:48.990Z,17.70
2022-08-18T14:40:17.407Z,17.70
2022-08-18T14:42:54.942Z,17.80
2022-08-18T14:45:31.229Z,17.90
2022-08-18T14:48:06.765Z,18.00
2022-08-18T14:50:35.937Z,18.10
2022-08-18T14:53:04.529Z,18.10
2022-08-18T14:55:32.030Z,17.90
2022-08-18T14:57:59.446Z,18.00
2022-08-18T15:00:27.927Z,18.00
2022-08-18T15:02:55.462Z,18.00
2022-08-18T15:05:24.427Z,17.90
2022-08-18T15:07:52.787Z,17.80
2022-08-18T15:10:23.306Z,17.80
2022-08-18T15:12:54.396Z,17.90
2022-08-18T15:15:22.356Z,17.90
2022-08-18T15:17:52.938Z,18.00
2022-08-18T15:20:28.758Z,18.10
2022-08-18T15:23:22.830Z,18.20
2022-08-18T15:25:55.173Z,18.20
2022-08-18T15:28:26.417Z,18.20
2022-08-18T15:33:40.357Z,18.30
2022-08-18T15:36:10.325Z,18.30
2022-08-18T15:38:43.177Z,18.40
2022-08-18T15:41:10.241Z,18.40
2022-08-18T15:43:45.918Z,18.40
2022-08-18T15:46:16.891Z,18.40
2022-08-18T15:48:44.217Z,18.30
2022-08-18T15:51:12.075Z,18.40
2022-08-18T15:53:45.001Z,18.30
2022-08-18T15:56:14.992Z,18.30
2022-08-18T15:58:41.975Z,18.30
2022-08-18T16:01:29.908Z,18.20
2022-08-18T16:03:58.023Z,18.30
2022-08-18T16:06:27.532Z,18.30
2022-08-18T16:08:55.762Z,18.20
2022-08-18T16:11:29.133Z,18.30
2022-08-18T16:13:59.072Z,18.20
2022-08-18T16:16:28.986Z,18.10
2022-08-18T16:19:06.609Z,18.10
2022-08-18T16:21:33.850Z,18.00
2022-08-18T16:24:00.799Z,17.90
2022-08-18T16:26:27.706Z,17.90
2022-08-18T16:28:54.677Z,17.80
2022-08-18T16:31:26.734Z,17.90
2022-08-18T16:33:54.980Z,17.80
2022-08-18T16:36:25.462Z,17.80
2022-08-18T16:38:56.048Z,17.90
2022-08-18T16:41:26.813Z,17.90
2022-08-18T16:43:53.969Z,17.90
2022-08-18T16:46:24.611Z,17.90
2022-08-18T16:48:51.840Z,18.00
2022-08-18T16:51:22.320Z,18.00
2022-08-18T16:53:52.298Z,18.10
2022-08-18T16:56:25.012Z,18.00
2022-08-18T16:59:10.504Z,18.00
2022-08-18T17:01:57.070Z,18.20
2022-08-18T17:04:29.882Z,18.20
2022-08-18T17:06:57.268Z,18.20
2022-08-18T17:09:24.856Z,18.30
2022-08-18T17:11:52.515Z,18.40
2022-08-18T17:14:25.049Z,18.40
2022-08-18T17:16:56.213Z,18.40
2022-08-18T17:19:25.497Z,18.40
2022-08-18T17:21:53.233Z,18.40
2022-08-18T17:24:31.931Z,18.30
2022-08-18T17:27:26.575Z,18.30
2022-08-18T17:30:16.426Z,18.30
2022-08-18T17:32:52.058Z,18.10
2022-08-18T17:35:26.323Z,18.10
2022-08-18T17:38:21.304Z,18.10
2022-08-18T17:40:54.453Z,18.10
2022-08-18T17:43:29.618Z,18.10
2022-08-18T17:46:01.704Z,18.10
2022-08-18T17:48:52.646Z,18.10
2022-08-18T17:51:37.509Z,18.10
2022-08-18T17:54:38.318Z,18.00
2022-08-18T17:57:12.881Z,18.00
2022-08-18T18:00:02.214Z,17.90
2022-08-18T18:02:31.465Z,17.90
2022-08-18T18:05:05.639Z,18.00
2022-08-18T18:07:43.312Z,18.00
2022-08-18T18:10:14.379Z,18.00
2022-08-18T18:12:41.833Z,17.90
2022-08-18T18:15:12.292Z,17.80
2022-08-18T18:17:42.502Z,17.90
2022-08-18T18:20:41.889Z,17.90
2022-08-18T18:23:21.116Z,17.80
2022-08-18T18:25:50.297Z,17.80
2022-08-18T18:28:33.389Z,17.70
2022-08-18T18:31:21.442Z,17.70
2022-08-18T18:33:56.981Z,17.70
2022-08-18T18:36:45.978Z,17.70
2022-08-18T18:39:35.835Z,17.80
2022-08-18T18:42:17.621Z,17.80
2022-08-18T18:44:53.545Z,17.80
2022-08-18T18:47:32.836Z,17.80
2022-08-18T18:50:24.669Z,17.80
2022-08-18T18:53:14.328Z,17.90
2022-08-18T18:56:14.810Z,17.90
2022-08-18T18:58:48.326Z,17.90
2022-08-18T19:01:49.452Z,17.90
2022-08-18T19:04:24.291Z,17.90
2022-08-18T19:06:54.275Z,17.80
2022-08-18T19:09:57.122Z,17.90
2022-08-18T19:12:29.788Z,17.90
2022-08-18T19:15:08.416Z,17.80
2022-08-18T19:17:40.386Z,17.80
2022-08-18T19:20:15.118Z,17.70
2022-08-18T19:22:46.658Z,17.70
2022-08-18T19:25:19.724Z,17.70
2022-08-18T19:27:49.822Z,17.60
2022-08-18T19:30:20.343Z,17.60
2022-08-18T19:32:55.072Z,17.60
2022-08-18T19:35:58.913Z,17.60
2022-08-18T19:38:33.849Z,17.50
2022-08-18T19:41:31.022Z,17.50
2022-08-18T19:44:04.755Z,17.40
2022-08-18T19:46:37.027Z,17.40
2022-08-18T19:49:24.041Z,17.40
2022-08-18T19:51:58.155Z,17.40
2022-08-18T19:54:46.132Z,17.30
2022-08-18T19:57:45.329Z,17.30
2022-08-18T20:00:34.126Z,17.30
2022-08-18T20:03:31.844Z,17.30
2022-08-18T20:06:36.094Z,17.30
2022-08-18T20:09:23.564Z,17.20
2022-08-18T20:12:13.718Z,17.20
2022-08-18T20:14:45.157Z,17.10
2022-08-18T20:17:16.932Z,17.10
2022-08-18T20:19:57.662Z,17.10
2022-08-18T20:22:25.056Z,17.10
2022-08-18T20:25:05.787Z,17.10
2022-08-18T20:27:42.517Z,17.10
2022-08-18T20:30:30.320Z,17.00
2022-08-18T20:33:08.965Z,17.00
2022-08-18T20:35:53.679Z,17.00
2022-08-18T20:38:39.050Z,17.00
2022-08-18T20:41:27.715Z,16.90
2022-08-18T20:44:28.640Z,16.90
2022-08-18T20:47:47.302Z,16.90
2022-08-18T20:50:33.995Z,16.90
2022-08-18T20:53:50.938Z,16.80
2022-08-18T20:56:43.982Z,16.80
2022-08-18T20:59:17.910Z,16.90
2022-08-18T21:01:57.281Z,16.90
2022-08-18T21:04:34.754Z,16.90
2022-08-18T21:07:13.039Z,16.90
2022-08-18T21:09:50.708Z,16.90
2022-08-18T21:12:23.776Z,16.90
2022-08-18T21:14:56.865Z,16.80
2022-08-18T21:17:26.385Z,16.80
2022-08-18T21:19:59.606Z,16.70
2022-08-18T21:22:28.773Z,16.70
2022-08-18T21:24:55.924Z,16.60
2022-08-18T21:27:38.130Z,16.50
2022-08-18T21:30:14.590Z,16.40
2022-08-18T21:32:44.662Z,16.40
2022-08-18T21:35:27.957Z,16.30
2022-08-18T21:38:06.494Z,16.30
2022-08-18T21:40:44.573Z,16.40
2022-08-18T21:43:14.743Z,16.30
2022-08-18T21:45:50.080Z,16.30
2022-08-18T22:01:10.707Z,16.10
2022-08-18T22:03:52.449Z,16.00
2022-08-18T22:06:27.073Z,16.00
2022-08-18T22:09:23.705Z,16.00
2022-08-18T22:12:44.170Z,15.90
2022-08-18T22:15:16.154Z,15.90
2022-08-18T22:17:52.159Z,15.90
2022-08-18T22:20:37.977Z,15.90
2022-08-18T22:23:32.608Z,16.00
2022-08-18T22:26:17.448Z,16.00
2022-08-18T22:29:13.218Z,16.00
2022-08-18T22:31:44.634Z,16.00
2022-08-18T22:34:13.523Z,16.10
2022-08-18T22:36:59.862Z,16.10
2022-08-18T22:39:30.126Z,16.20
2022-08-18T22:41:57.992Z,16.10
2022-08-18T22:44:25.666Z,16.10
2022-08-18T22:46:52.955Z,16.10
2022-08-18T22:49:21.180Z,16.10
2022-08-18T22:51:50.679Z,16.10
2022-08-18T22:54:19.223Z,16.00
2022-08-18T22:56:54.121Z,16.00
2022-08-18T22:59:25.617Z,16.00
2022-08-18T23:01:55.094Z,15.90
2022-08-18T23:04:24.681Z,15.90
2022-08-18T23:06:53.706Z,15.90
2022-08-18T23:09:26.828Z,15.80
2022-08-18T23:11:56.825Z,15.80
2022-08-18T23:14:24.513Z,15.80
2022-08-18T23:16:51.806Z,15.70
2022-08-18T23:19:20.485Z,15.60
2022-08-18T23:21:49.402Z,15.50
2022-08-18T23:24:17.816Z,15.50
2022-08-18T23:26:45.230Z,15.40
2022-08-18T23:29:14.480Z,15.30
2022-08-18T23:31:43.661Z,15.20
2022-08-18T23:34:13.205Z,15.10
2022-08-18T23:36:45.095Z,15.00
2022-08-18T23:39:13.545Z,14.90
2022-08-18T23:41:40.600Z,14.80
2022-08-18T23:44:07.708Z,14.90
2022-08-18T23:46:35.612Z,14.90
2022-08-18T23:51:41.524Z,14.70
2022-08-18T23:54:20.476Z,14.40
2022-08-18T23:56:48.770Z,14.40
2022-08-18T23:59:20.854Z,14.30
